LSZHEDDN

Guest
Details From LSZH - Zurich
To EDDN - Nurnberg
Flight Number -
Tags Generated
Created
Modified
Stats Distance 158 nm / 293 km
Max Altitude 0 ft / 0 m
Waypoints 2
Social Downloads 0
Likes 0
Share VATSIM

Download

Looking for another format? Having issues loading an existing format? Contact us
Advertisement - Login to hide

Notes

Generated

Route

LSZH EDDN

ID Type Via Altitude Latitude Longitude Leg Dist Tot Dist Heading (true) Name
O LSZH APT - 0 ft / 0 m 47.45894˚ 8.53748˚ - 0 nm - -
O EDDN APT - 0 ft / 0 m 49.50055˚ 11.05918˚ 158 nm 158 nm 38° / 40° -

Altitude Profile

Advertisement - Login to hide

LSZH

Details ICAO LSZH (ZRH)
Name Zurich
Region Switzerland
Timezone Europe/Zurich (UTC+2.0)
Stats Elevation 1,416 ft / 432 m (AMSL)
Location 47.463489° 8.549964°
Runways 3
Magnetic Variation 2.399° E

METAR

LSZH 240420Z 16002KT 8000 MIFG FEW002 SCT020 BKN230 12/12 Q1019 NOSIG

Decode

TAF

TAF LSZH 240225Z 2403/2509 VRB03KT 9999 FEW006 BKN070 TX23/2415Z TN14/2404Z TN10/2504Z PROB40 TEMPO 2403/2410 CAVOK BECMG 2407/2410 9999 FEW060 PROB30 2415/2420 SHRA SCT050TCU BECMG 2419/2422 CAVOK

Decode

Departure Runways

ID Width Length Bearing (true) Bearing (mag) Surface Threshold Offset Overrun Length
10 197 ft / 60 m 8,180 ft / 2,493 m 95.98° 93.58° Concrete 0 ft / 0 m 197 ft / 60 m
14 197 ft / 60 m 10,816 ft / 3,297 m 137.30° 134.90° Concrete 492 ft / 150 m 0 ft / 0 m
16 197 ft / 60 m 12,137 ft / 3,699 m 155.00° 152.60° Concrete 0 ft / 0 m 197 ft / 60 m
28 197 ft / 60 m 8,180 ft / 2,493 m 276.01° 273.61° Concrete 0 ft / 0 m 197 ft / 60 m
32 197 ft / 60 m 10,816 ft / 3,297 m 317.32° 314.92° Concrete 0 ft / 0 m 197 ft / 60 m
34 197 ft / 60 m 12,137 ft / 3,699 m 335.01° 332.61° Concrete 1,542 ft / 470 m 0 ft / 0 m

EDDN

Details ICAO EDDN (NUE)
Name Nurnberg
Region Germany - Civil
Timezone Europe/Berlin (UTC+2.0)
Stats Elevation 1,045 ft / 319 m (AMSL)
Location 49.498744° 11.077580°
Runways 1
Magnetic Variation 3.074° E

METAR

EDDN 240420Z VRB02KT 9999 -SHRA VCTS FEW020 SCT030CB BKN055 15/14 Q1018 TEMPO TSRA

Decode

TAF

TAF AMD EDDN 240310Z 2403/2424 VRB03KT 9999 FEW030 PROB30 TEMPO 2403/2406 3000 TSRA BKN025CB BECMG 2407/2409 09006KT PROB40 TEMPO 2409/2420 TSRA BKN030CB TEMPO 2420/2424 RA BKN014

Decode

Destination Runways

ID Width Length Bearing (true) Bearing (mag) Surface Threshold Offset Overrun Length
10 148 ft / 45 m 8,819 ft / 2,688 m 98.60° 95.53° Asphalt 0 ft / 0 m 0 ft / 0 m
28 148 ft / 45 m 8,819 ft / 2,688 m 278.63° 275.56° Asphalt 0 ft / 0 m 0 ft / 0 m

Approach Navaids

Runway Type Ident Frequency Range Bearing (true) Bearing (mag) Slope Elevation
10 Localiser INUE 111.30 MHz 18 nm / 33 km 98.64° 95.56° - 1,046 ft / 319 m (AMSL)
10 Glidescope INUE 111.30 MHz 10 nm / 19 km 98.61° 95.54° 3.00° 1,022 ft / 312 m (AMSL)
28 Localiser INUW 109.10 MHz 23 nm / 43 km 278.59° 275.51° - 1,122 ft / 342 m (AMSL)
28 Glidescope INUW 109.10 MHz 10 nm / 19 km 278.62° 275.54° 3.00° 1,046 ft / 319 m (AMSL)

Popular Alternatives